Time;durP1;ratioP1;P1;durP2;ratioP2;P2;SDS_P1;SDS_P2;PMS_P1;PMS_P2;Temp;Humidity;BMP_temperature;BMP_pressure;BME280_temperature;BME280_humidity;BME280_pressure;Samples;Min_cycle;Max_cycle;Signal;HPM_P1;HPM_P2
2021/10/31 00:00:07;;;;;;;0.00;0.00;;;;;;;10.18;78.25;99710.34;5028234;28;20030;-83
2021/10/31 00:02:32;;;;;;;0.00;0.00;;;;;;;10.11;78.16;99704.41;5010613;28;20030;-82
2021/10/31 00:04:58;;;;;;;0.00;0.00;;;;;;;10.16;78.04;99711.66;5010249;28;20025;-81
2021/10/31 00:07:23;;;;;;;0.10;0.10;;;;;;;10.16;78.16;99717.00;5020845;28;20042;-78
2021/10/31 00:09:49;;;;;;;0.17;0.17;;;;;;;10.14;77.74;99703.09;5028939;28;20521;-80
2021/10/31 00:12:14;;;;;;;0.00;0.00;;;;;;;10.10;77.80;99703.59;5030151;28;20102;-80
2021/10/31 00:14:40;;;;;;;0.00;0.00;;;;;;;10.08;77.56;99703.06;5029167;28;20482;-76
2021/10/31 00:17:05;;;;;;;0.00;0.00;;;;;;;10.06;77.89;99707.84;5029788;28;20037;-82
2021/10/31 00:19:31;;;;;;;0.17;0.17;;;;;;;10.04;77.35;99704.59;5029520;28;20032;-82
2021/10/31 00:21:57;;;;;;;0.00;0.00;;;;;;;10.00;78.09;99700.06;5028836;28;20049;-82
2021/10/31 00:24:24;;;;;;;0.10;0.10;;;;;;;9.96;78.27;99702.44;5029368;28;20029;-76
2021/10/31 00:26:49;;;;;;;0.00;0.00;;;;;;;9.92;77.85;99691.44;5029047;28;20083;-74
2021/10/31 00:29:15;;;;;;;0.00;0.00;;;;;;;9.92;77.88;99701.31;5029588;28;20026;-77
2021/10/31 00:31:41;;;;;;;0.00;0.00;;;;;;;9.80;78.34;99685.44;5029309;28;20121;-76
2021/10/31 00:34:07;;;;;;;0.00;0.00;;;;;;;9.83;78.58;99689.50;5029649;28;20120;-81
2021/10/31 00:36:32;;;;;;;0.00;0.00;;;;;;;9.83;78.44;99697.50;5029398;28;20387;-81
2021/10/31 00:38:58;;;;;;;0.00;0.00;;;;;;;9.76;78.95;99687.84;5029185;28;20025;-79
2021/10/31 00:41:23;;;;;;;0.00;0.00;;;;;;;9.74;79.04;99687.28;5028428;28;20033;-81
2021/10/31 00:43:49;;;;;;;0.00;0.00;;;;;;;9.74;79.28;99683.78;5028796;28;20049;-81
2021/10/31 00:46:15;;;;;;;0.00;0.00;;;;;;;9.68;78.62;99677.63;5028850;28;20026;-82
2021/10/31 00:48:41;;;;;;;0.00;0.00;;;;;;;9.76;78.92;99695.88;5029264;28;20037;-80
2021/10/31 00:51:07;;;;;;;0.00;0.00;;;;;;;9.69;78.15;99692.59;5029224;28;20036;-77
2021/10/31 00:53:32;;;;;;;0.00;0.00;;;;;;;9.65;78.07;99694.16;5029576;28;20033;-76
2021/10/31 00:55:59;;;;;;;0.00;0.00;;;;;;;9.64;77.74;99694.41;5029246;28;20029;-78
2021/10/31 00:58:25;;;;;;;0.00;0.00;;;;;;;9.58;77.27;99685.53;5029186;28;20040;-77
2021/10/31 01:00:51;;;;;;;0.00;0.00;;;;;;;9.45;77.31;99670.75;5028180;28;20037;-75
2021/10/31 01:03:17;;;;;;;0.00;0.00;;;;;;;9.50;77.59;99692.16;5030529;28;20033;-77
2021/10/31 01:05:47;;;;;;;0.00;0.00;;;;;;;9.44;77.46;99690.50;5028600;28;20035;-78
2021/10/31 01:08:29;;;;;;;0.00;0.00;;;;;;;9.41;78.08;99685.63;5029092;28;20032;-80
2021/10/31 01:11:12;;;;;;;0.00;0.00;;;;;;;9.40;77.78;99684.84;5029047;28;20021;-76
2021/10/31 01:13:54;;;;;;;0.00;0.00;;;;;;;9.37;78.27;99677.31;5028937;28;20486;-75
2021/10/31 01:16:38;;;;;;;0.00;0.00;;;;;;;9.34;78.55;99677.03;5028906;28;20096;-78
2021/10/31 01:19:23;;;;;;;0.00;0.00;;;;;;;9.09;78.97;99643.69;5028572;28;20453;-79
2021/10/31 01:22:05;;;;;;;0.00;0.00;;;;;;;9.23;78.96;99657.47;5028388;28;20071;-77
2021/10/31 01:24:45;;;;;;;0.00;0.00;;;;;;;9.28;79.34;99668.97;5028938;28;20029;-76
2021/10/31 01:27:37;;;;;;;0.00;0.00;;;;;;;9.28;79.51;99668.97;5028197;28;20051;-80
2021/10/31 01:30:08;;;;;;;0.00;0.00;;;;;;;9.10;79.85;99639.97;5029748;28;20083;-76
2021/10/31 01:32:52;;;;;;;0.25;0.25;;;;;;;9.25;79.35;99664.16;5029196;28;20021;-76
2021/10/31 01:35:54;;;;;;;0.00;0.00;;;;;;;9.24;79.15;99664.38;5028786;28;20505;-72
2021/10/31 01:38:33;;;;;;;0.00;0.00;;;;;;;9.19;78.62;99646.47;5030085;28;20482;-77
2021/10/31 01:41:19;;;;;;;0.00;0.00;;;;;;;9.20;78.65;99657.94;5028522;28;20116;-78
2021/10/31 01:44:04;;;;;;;0.00;0.00;;;;;;;9.16;78.57;99662.19;5024036;28;20041;-76
2021/10/31 01:46:46;;;;;;;0.00;0.00;;;;;;;9.16;77.91;99664.84;5008745;28;20068;-74
2021/10/31 01:49:24;;;;;;;0.00;0.00;;;;;;;9.11;77.73;99652.25;5008710;28;20128;-74
2021/10/31 01:52:33;;;;;;;0.00;0.00;;;;;;;9.03;77.89;99650.03;5029345;28;20038;-77
2021/10/31 01:55:05;;;;;;;0.00;0.00;;;;;;;8.99;78.17;99644.38;5029608;28;20106;-75
2021/10/31 01:57:36;;;;;;;0.00;0.00;;;;;;;9.00;78.52;99640.69;5031151;28;20044;-74
2021/10/31 02:00:09;;;;;;;0.00;0.00;;;;;;;8.84;78.83;99621.03;5032872;28;20033;-74
2021/10/31 02:02:40;;;;;;;0.00;0.00;;;;;;;8.96;79.00;99645.69;5032170;28;20112;-75
2021/10/31 02:05:07;;;;;;;0.00;0.00;;;;;;;8.93;78.70;99645.41;5013659;28;20399;-75
2021/10/31 02:07:36;;;;;;;0.10;0.10;;;;;;;8.92;78.31;99651.78;5012439;28;20033;-76
2021/10/31 02:10:03;;;;;;;0.00;0.00;;;;;;;8.88;78.45;99648.81;5012377;28;20030;-75
2021/10/31 02:12:29;;;;;;;0.38;0.38;;;;;;;8.81;77.93;99634.84;5012422;28;20434;-74
2021/10/31 02:14:56;;;;;;;0.00;0.00;;;;;;;8.86;78.07;99650.13;5020084;28;20033;-77
2021/10/31 02:17:22;;;;;;;0.47;0.47;;;;;;;8.83;78.59;99651.41;5012050;28;21758;-76
2021/10/31 02:19:50;;;;;;;0.03;0.03;;;;;;;8.80;78.28;99644.72;5011878;28;20030;-75
2021/10/31 02:22:25;;;;;;;0.00;0.00;;;;;;;8.78;77.56;99646.81;5012065;28;20037;-74
2021/10/31 02:24:51;;;;;;;0.10;0.10;;;;;;;8.76;77.87;99643.63;5021364;28;20141;-74
2021/10/31 02:27:20;;;;;;;0.00;0.00;;;;;;;8.78;77.97;99646.03;5019452;28;20519;-74
2021/10/31 02:29:56;;;;;;;0.00;0.00;;;;;;;8.76;77.94;99643.63;5011699;28;20049;-74
2021/10/31 02:32:25;;;;;;;0.10;0.10;;;;;;;8.79;78.70;99653.00;5024073;28;20049;-74
2021/10/31 02:34:52;;;;;;;0.17;0.17;;;;;;;8.75;78.61;99642.00;5031232;28;20033;-76
2021/10/31 02:37:19;;;;;;;0.00;0.00;;;;;;;8.76;78.22;99643.63;5032981;28;20017;-74
2021/10/31 02:39:45;;;;;;;0.00;0.00;;;;;;;8.69;77.99;99636.84;5032831;28;20104;-74
2021/10/31 02:42:10;;;;;;;0.00;0.00;;;;;;;8.70;77.92;99638.47;5030440;28;20179;-74
2021/10/31 02:44:36;;;;;;;0.00;0.00;;;;;;;8.63;78.10;99634.13;5020266;28;20061;-76
2021/10/31 02:47:04;;;;;;;0.00;0.00;;;;;;;8.60;77.93;99628.47;5012689;28;20355;-73
2021/10/31 02:49:30;;;;;;;0.00;0.00;;;;;;;8.66;78.18;99638.16;5011440;28;20022;-77
2021/10/31 02:51:58;;;;;;;0.00;0.00;;;;;;;8.71;77.97;99638.22;5011444;28;20026;-75
2021/10/31 02:54:26;;;;;;;0.10;0.10;;;;;;;8.71;78.63;99640.88;5011823;28;20096;-75
2021/10/31 02:57:02;;;;;;;0.00;0.00;;;;;;;8.70;79.01;99639.25;5011216;28;20522;-72
2021/10/31 02:59:39;;;;;;;0.00;0.00;;;;;;;8.67;78.81;99639.78;5023791;28;20053;-74
2021/10/31 03:02:07;;;;;;;0.00;0.00;;;;;;;8.60;79.14;99623.16;5030793;28;20068;-75
2021/10/31 03:04:33;;;;;;;0.00;0.00;;;;;;;8.64;79.72;99641.06;5028169;28;20061;-74
2021/10/31 03:07:00;;;;;;;0.00;0.00;;;;;;;8.66;79.74;99643.50;5012163;28;20291;-77
2021/10/31 03:09:26;;;;;;;0.00;0.00;;;;;;;8.68;79.89;99646.72;5010880;28;20371;-77
2021/10/31 03:12:01;;;;;;;0.00;0.00;;;;;;;8.71;79.89;99651.53;5012458;28;20032;-77
2021/10/31 03:14:26;;;;;;;0.00;0.00;;;;;;;8.71;80.00;99648.88;5030731;28;20037;-75
2021/10/31 03:16:52;;;;;;;0.00;0.00;;;;;;;8.71;80.03;99640.88;5030330;28;20021;-77
2021/10/31 03:19:17;;;;;;;0.00;0.00;;;;;;;8.73;80.17;99643.31;5030797;28;20025;-79
2021/10/31 03:21:42;;;;;;;0.00;0.00;;;;;;;8.72;79.87;99639.81;5030517;28;20052;-80
2021/10/31 03:24:08;;;;;;;0.10;0.10;;;;;;;8.70;79.65;99639.25;5030769;28;20081;-74
2021/10/31 03:26:33;;;;;;;0.00;0.00;;;;;;;8.74;79.76;99645.72;5030574;28;20021;-77
2021/10/31 03:28:59;;;;;;;0.00;0.00;;;;;;;8.80;80.16;99643.91;5029462;28;20025;-82
2021/10/31 03:31:24;;;;;;;0.00;0.00;;;;;;;8.79;80.13;99634.31;5030296;28;20056;-77
2021/10/31 03:33:49;;;;;;;0.00;0.00;;;;;;;8.72;80.38;99629.16;5030303;28;20450;-77
2021/10/31 03:36:15;;;;;;;0.00;0.00;;;;;;;8.84;80.51;99637.03;5029499;28;20040;-75
2021/10/31 03:38:40;;;;;;;0.00;0.00;;;;;;;8.86;80.62;99640.25;5030874;28;20040;-77
2021/10/31 03:41:06;;;;;;;0.00;0.00;;;;;;;8.90;80.31;99643.22;5029472;28;20033;-74
2021/10/31 03:43:31;;;;;;;0.08;0.08;;;;;;;8.91;80.25;99642.97;5029846;28;20064;-77
2021/10/31 03:45:57;;;;;;;0.00;0.00;;;;;;;8.93;79.96;99645.41;5029687;28;20506;-76
2021/10/31 03:48:22;;;;;;;0.00;0.00;;;;;;;8.91;80.49;99647.50;5030114;28;20532;-74
2021/10/31 03:50:48;;;;;;;0.00;0.00;;;;;;;8.93;80.07;99646.19;5029858;28;20491;-74
2021/10/31 03:53:13;;;;;;;0.00;0.00;;;;;;;8.91;79.69;99645.66;5030374;28;20029;-75
2021/10/31 03:55:39;;;;;;;0.00;0.00;;;;;;;8.83;79.94;99621.28;5029769;28;20471;-75
2021/10/31 03:58:04;;;;;;;0.00;0.00;;;;;;;8.95;79.82;99646.75;5029858;28;20032;-74
2021/10/31 04:00:30;;;;;;;0.00;0.00;;;;;;;8.95;79.77;99643.28;5031466;28;20037;-76
2021/10/31 04:02:55;;;;;;;0.20;0.20;;;;;;;8.93;80.08;99629.38;5030136;28;20125;-77
2021/10/31 04:05:21;;;;;;;0.85;0.75;;;;;;;8.96;80.07;99637.69;5029065;28;20029;-77
2021/10/31 04:07:47;;;;;;;0.00;0.00;;;;;;;8.97;79.92;99635.81;5030081;28;20475;-77
2021/10/31 04:10:13;;;;;;;1.10;0.43;;;;;;;8.94;79.90;99639.81;5031240;28;20029;-74
2021/10/31 04:12:38;;;;;;;0.00;0.00;;;;;;;8.94;80.37;99636.34;5029313;28;20095;-75
2021/10/31 04:15:05;;;;;;;0.00;0.00;;;;;;;8.94;80.21;99634.47;5030315;28;20029;-76
2021/10/31 04:17:31;;;;;;;0.00;0.00;;;;;;;8.95;80.22;99627.28;5029093;28;20048;-75
2021/10/31 04:19:57;;;;;;;0.00;0.00;;;;;;;8.97;80.60;99635.81;5030702;28;20491;-78
2021/10/31 04:22:22;;;;;;;0.20;0.20;;;;;;;8.95;80.53;99629.94;5029462;28;20118;-76
2021/10/31 04:24:48;;;;;;;0.00;0.00;;;;;;;8.96;80.79;99632.38;5029987;28;20022;-76
2021/10/31 04:27:14;;;;;;;0.00;0.00;;;;;;;8.90;81.18;99619.22;5029505;28;20402;-75
2021/10/31 04:29:39;;;;;;;0.00;0.00;;;;;;;8.97;80.94;99627.81;5029326;28;20575;-80
2021/10/31 04:32:05;;;;;;;0.00;0.00;;;;;;;8.95;81.51;99620.06;5010776;28;20541;-75
2021/10/31 04:34:30;;;;;;;0.00;0.00;;;;;;;8.98;81.42;99624.09;5010271;28;20072;-77
2021/10/31 04:36:57;;;;;;;0.13;0.13;;;;;;;8.99;81.44;99608.91;5028798;28;20042;-76
2021/10/31 04:39:22;;;;;;;0.00;0.00;;;;;;;9.02;81.47;99617.22;5029132;28;20406;-76
2021/10/31 04:41:48;;;;;;;0.00;0.00;;;;;;;8.99;81.51;99608.91;5028633;28;20052;-76
2021/10/31 04:44:15;;;;;;;0.00;0.00;;;;;;;9.03;81.94;99604.69;5027525;28;20041;-77
2021/10/31 04:46:40;;;;;;;0.00;0.00;;;;;;;9.05;82.00;99610.56;5030102;28;20029;-77
2021/10/31 04:49:06;;;;;;;0.00;0.00;;;;;;;9.07;82.00;99611.09;5028861;28;20028;-75
2021/10/31 04:51:31;;;;;;;0.00;0.00;;;;;;;9.09;82.38;99620.50;5028929;28;20508;-77
2021/10/31 04:53:57;;;;;;;0.00;0.00;;;;;;;9.09;82.36;99615.16;5028944;28;20029;-75
2021/10/31 04:56:23;;;;;;;0.00;0.00;;;;;;;9.11;82.38;99615.69;5029169;28;20021;-75
2021/10/31 04:58:50;;;;;;;0.00;0.00;;;;;;;9.07;82.06;99605.78;5029069;28;20036;-76
2021/10/31 05:01:15;;;;;;;0.00;0.00;;;;;;;9.15;82.38;99612.53;5028764;28;20064;-80
2021/10/31 05:03:41;;;;;;;0.00;0.00;;;;;;;9.17;82.38;99613.06;5029042;28;20029;-78
2021/10/31 05:06:06;;;;;;;0.00;0.00;;;;;;;9.10;82.30;99594.63;5027787;28;20513;-74
2021/10/31 05:08:32;;;;;;;0.00;0.00;;;;;;;9.16;82.61;99614.94;5030133;28;20035;-81
2021/10/31 05:10:57;;;;;;;0.00;0.00;;;;;;;9.21;82.42;99617.66;5028899;28;20039;-80
2021/10/31 05:13:23;;;;;;;0.00;0.00;;;;;;;9.21;82.64;99606.97;5023206;28;20391;-75
2021/10/31 05:15:48;;;;;;;1.77;1.08;;;;;;;9.25;82.34;99609.94;5009199;28;20128;-75
2021/10/31 05:18:14;;;;;;;0.17;0.17;;;;;;;9.23;82.55;99612.88;5025155;28;20036;-75
2021/10/31 05:20:39;;;;;;;0.00;0.00;;;;;;;9.28;82.46;99612.91;5029266;28;20037;-75
2021/10/31 05:23:05;;;;;;;0.00;0.00;;;;;;;9.27;82.33;99607.84;5028018;28;20409;-76
2021/10/31 05:25:30;;;;;;;0.00;0.00;;;;;;;9.27;82.74;99600.63;5025422;28;20120;-77
2021/10/31 05:27:55;;;;;;;0.00;0.00;;;;;;;9.31;82.55;99608.16;5020379;28;20037;-75
2021/10/31 05:30:21;;;;;;;0.00;0.00;;;;;;;9.31;82.37;99603.59;5011561;28;20117;-75
2021/10/31 05:32:47;;;;;;;0.00;0.00;;;;;;;9.33;82.47;99600.69;5017675;28;20026;-75
2021/10/31 05:35:13;;;;;;;0.10;0.10;;;;;;;9.32;82.93;99601.75;5012672;28;20052;-75
2021/10/31 05:37:42;;;;;;;0.00;0.00;;;;;;;9.35;82.64;99593.22;5012325;28;20053;-74
2021/10/31 05:40:10;;;;;;;0.00;0.00;;;;;;;9.27;82.34;99583.81;5013183;28;20475;-74
2021/10/31 05:42:36;;;;;;;0.10;0.10;;;;;;;9.36;82.64;99606.34;5026799;28;20395;-73
2021/10/31 05:45:02;;;;;;;0.10;0.10;;;;;;;9.40;82.37;99606.63;5030170;28;20103;-73
2021/10/31 05:47:28;;;;;;;0.00;0.00;;;;;;;9.38;82.57;99596.19;5031367;28;20033;-75
2021/10/31 05:49:54;;;;;;;0.13;0.13;;;;;;;9.44;82.42;99602.38;5030536;28;20029;-77
2021/10/31 05:52:20;;;;;;;0.00;0.00;;;;;;;9.40;82.70;99599.41;5030559;28;20059;-76
2021/10/31 05:54:46;;;;;;;0.00;0.00;;;;;;;9.46;82.67;99605.63;5030709;28;20029;-76
2021/10/31 05:57:11;;;;;;;0.00;0.00;;;;;;;9.45;82.46;99599.47;5030347;28;20240;-76
2021/10/31 05:59:37;;;;;;;0.00;0.00;;;;;;;9.54;82.51;99610.47;5015878;28;20477;-76
2021/10/31 06:02:03;;;;;;;0.10;0.10;;;;;;;9.53;82.75;99597.38;5011791;28;20121;-76
2021/10/31 06:04:31;;;;;;;0.00;0.00;;;;;;;9.49;82.63;99588.28;5025779;28;20037;-74
2021/10/31 06:06:56;;;;;;;0.10;0.10;;;;;;;9.53;82.59;99592.03;5016302;28;20040;-73
2021/10/31 06:09:21;;;;;;;0.00;0.00;;;;;;;9.65;82.50;99605.22;5015286;28;20491;-73
2021/10/31 06:11:47;;;;;;;0.00;0.00;;;;;;;9.68;82.58;99610.03;5018605;28;20113;-74
2021/10/31 06:14:12;;;;;;;0.00;0.00;;;;;;;9.72;82.18;99603.94;5012794;28;20510;-74
2021/10/31 06:16:38;;;;;;;0.10;0.10;;;;;;;9.80;82.20;99613.31;5015826;28;20030;-74
2021/10/31 06:19:05;;;;;;;0.10;0.10;;;;;;;9.84;82.17;99610.94;5012235;28;20026;-73
2021/10/31 06:21:30;;;;;;;0.00;0.00;;;;;;;9.91;82.13;99611.53;5013584;28;20438;-76
2021/10/31 06:23:56;;;;;;;0.40;0.40;;;;;;;9.91;81.56;99609.69;5012129;28;20021;-74
2021/10/31 06:26:21;;;;;;;0.17;0.17;;;;;;;10.02;82.10;99620.41;5011992;28;20042;-73
2021/10/31 06:28:47;;;;;;;0.00;0.00;;;;;;;10.06;81.45;99621.53;5012372;28;20076;-76
2021/10/31 06:31:12;;;;;;;1.65;0.75;;;;;;;10.15;81.68;99627.19;5012180;28;20061;-76
2021/10/31 06:33:38;;;;;;;0.00;0.00;;;;;;;10.17;81.63;99619.72;5018118;28;20079;-75
2021/10/31 06:36:04;;;;;;;0.10;0.10;;;;;;;10.25;81.23;99622.72;5033140;28;20026;-76
2021/10/31 06:38:29;;;;;;;0.00;0.00;;;;;;;10.26;81.49;99618.16;5031105;28;20025;-77
2021/10/31 06:40:54;;;;;;;0.00;0.00;;;;;;;10.34;81.20;99619.53;5031176;28;20090;-76
2021/10/31 06:43:20;;;;;;;0.00;0.00;;;;;;;10.36;81.39;99622.75;5031867;28;20057;-78
2021/10/31 06:45:45;;;;;;;0.20;0.20;;;;;;;10.39;81.40;99620.38;5031776;28;20030;-76
2021/10/31 06:48:11;;;;;;;0.22;0.22;;;;;;;10.39;81.25;99622.28;5032260;28;20030;-73
2021/10/31 06:50:36;;;;;;;0.22;0.22;;;;;;;10.36;81.21;99610.22;5031758;28;20026;-74
2021/10/31 06:53:02;;;;;;;0.10;0.10;;;;;;;10.41;81.72;99602.22;5029941;28;20490;-74
2021/10/31 06:55:27;;;;;;;0.03;0.03;;;;;;;10.48;81.62;99604.66;5031915;28;20111;-75
2021/10/31 06:57:55;;;;;;;0.00;0.00;;;;;;;10.59;81.43;99618.88;5031130;28;20065;-78
2021/10/31 07:00:20;;;;;;;0.00;0.00;;;;;;;10.62;81.23;99623.72;5031552;28;20397;-76
2021/10/31 07:02:46;;;;;;;0.00;0.00;;;;;;;10.67;80.81;99620.25;5030603;28;20112;-77
2021/10/31 07:05:12;;;;;;;0.00;0.00;;;;;;;10.72;81.29;99620.25;5029786;28;20117;-76
2021/10/31 07:07:37;;;;;;;0.10;0.10;;;;;;;10.76;80.64;99624.00;5028648;28;20090;-79
2021/10/31 07:10:03;;;;;;;0.00;0.00;;;;;;;10.83;80.58;99626.44;5030895;28;20025;-74
2021/10/31 07:12:28;;;;;;;0.00;0.00;;;;;;;10.84;79.91;99628.03;5031441;28;20033;-75
2021/10/31 07:14:54;;;;;;;0.00;0.00;;;;;;;10.85;79.45;99618.94;5031354;28;20040;-76
2021/10/31 07:17:19;;;;;;;0.00;0.00;;;;;;;10.83;79.33;99611.19;5030827;28;20494;-74
2021/10/31 07:19:44;;;;;;;0.00;0.00;;;;;;;10.96;78.79;99625.13;5031349;28;20076;-75
2021/10/31 07:22:11;;;;;;;0.00;0.00;;;;;;;11.00;78.50;99624.34;5032340;28;20037;-75
2021/10/31 07:24:37;;;;;;;0.00;0.00;;;;;;;11.04;78.53;99616.59;5031154;28;20497;-76
2021/10/31 07:27:02;;;;;;;0.00;0.00;;;;;;;11.10;78.80;99617.41;5032004;28;20041;-76
2021/10/31 07:29:28;;;;;;;0.00;0.00;;;;;;;11.16;78.90;99627.84;5030717;28;20029;-75
2021/10/31 07:31:53;;;;;;;0.00;0.00;;;;;;;11.19;78.21;99615.81;5031121;28;20414;-75
2021/10/31 07:34:24;;;;;;;0.00;0.00;;;;;;;11.24;77.60;99610.44;5030588;28;20032;-78
2021/10/31 07:36:50;;;;;;;0.10;0.10;;;;;;;11.26;76.52;99616.34;5030974;28;20434;-77
2021/10/31 07:39:15;;;;;;;0.10;0.10;;;;;;;11.31;76.34;99611.00;5029466;28;20034;-80
2021/10/31 07:41:40;;;;;;;0.20;0.20;;;;;;;11.37;75.24;99617.16;5030277;28;20639;-74
2021/10/31 07:44:06;;;;;;;0.13;0.13;;;;;;;11.42;75.03;99616.38;5023573;28;20036;-75
2021/10/31 07:46:33;;;;;;;0.00;0.00;;;;;;;11.44;73.89;99615.03;5031849;28;20494;-74
2021/10/31 07:48:59;;;;;;;0.05;0.05;;;;;;;11.43;74.14;99602.72;5031787;28;20025;-74
2021/10/31 07:51:25;;;;;;;0.03;0.03;;;;;;;11.48;74.17;99615.31;5031800;28;20683;-74
2021/10/31 07:53:51;;;;;;;0.10;0.10;;;;;;;11.44;73.50;99604.31;5031575;28;20026;-76
2021/10/31 07:56:18;;;;;;;0.00;0.00;;;;;;;11.53;73.36;99616.13;5030410;28;20029;-76
2021/10/31 07:58:46;;;;;;;0.00;0.00;;;;;;;11.54;73.45;99611.56;5029364;28;20025;-75
2021/10/31 08:01:12;;;;;;;0.00;0.00;;;;;;;11.53;73.13;99600.03;5022781;28;20041;-74
2021/10/31 08:03:39;;;;;;;0.30;0.30;;;;;;;11.60;72.91;99602.44;5010623;28;20184;-76
2021/10/31 08:06:05;;;;;;;0.00;0.00;;;;;;;11.57;73.64;99597.63;5018061;28;20022;-75
2021/10/31 08:08:30;;;;;;;0.00;0.00;;;;;;;11.65;72.16;99602.44;5021665;28;20025;-77
2021/10/31 08:10:56;;;;;;;0.00;0.00;;;;;;;11.60;72.25;99589.03;5027339;28;20065;-75
2021/10/31 08:13:23;;;;;;;0.00;0.00;;;;;;;11.74;72.09;99594.66;5020608;28;20030;-75
2021/10/31 08:15:49;;;;;;;0.13;0.13;;;;;;;11.79;72.08;99605.38;5031090;28;20570;-77
2021/10/31 08:18:15;;;;;;;0.03;0.03;;;;;;;11.77;71.40;99599.47;5029182;28;20112;-75
2021/10/31 08:20:41;;;;;;;0.00;0.00;;;;;;;11.75;71.28;99606.97;5030050;28;20026;-77
2021/10/31 08:23:07;;;;;;;0.05;0.05;;;;;;;11.68;70.23;99590.38;5025801;28;20029;-76
2021/10/31 08:25:33;;;;;;;0.10;0.10;;;;;;;11.65;70.90;99601.63;5029716;28;20029;-74
2021/10/31 08:27:58;;;;;;;0.10;0.10;;;;;;;11.66;70.99;99597.88;5012429;28;20032;-75
2021/10/31 08:30:30;;;;;;;0.10;0.10;;;;;;;11.61;71.78;99601.38;5044852;28;20036;-77
2021/10/31 08:32:56;;;;;;;0.30;0.30;;;;;;;11.60;71.96;99605.13;5027283;28;20110;-80
2021/10/31 08:35:23;;;;;;;0.00;0.00;;;;;;;11.63;72.25;99612.63;5032429;28;20036;-84
2021/10/31 08:37:48;;;;;;;0.10;0.10;;;;;;;11.54;72.98;99604.31;5028892;28;20029;-75
2021/10/31 08:40:14;;;;;;;0.13;0.13;;;;;;;11.53;73.16;99604.59;5035425;28;20075;-75
2021/10/31 08:42:40;;;;;;;0.10;0.10;;;;;;;11.51;72.95;99598.69;5011052;28;20042;-77
2021/10/31 08:45:08;;;;;;;0.30;0.30;;;;;;;11.46;73.76;99604.88;5021701;28;20048;-73
2021/10/31 08:47:34;;;;;;;1.08;0.85;;;;;;;11.39;74.53;99588.25;5022986;28;20080;-74
2021/10/31 08:50:00;;;;;;;1.67;1.08;;;;;;;11.44;74.58;99604.31;5029762;28;20029;-79
2021/10/31 08:52:26;;;;;;;0.35;0.35;;;;;;;11.42;74.99;99594.94;5030617;28;20044;-82
2021/10/31 08:54:51;;;;;;;0.30;0.30;;;;;;;11.38;74.86;99600.81;5028269;28;21649;-80
2021/10/31 08:57:17;;;;;;;0.75;0.75;;;;;;;11.42;74.71;99586.91;5028975;28;20407;-84
2021/10/31 08:59:43;;;;;;;0.10;0.10;;;;;;;11.36;75.40;99594.97;5029291;28;20048;-76
2021/10/31 09:02:08;;;;;;;0.15;0.15;;;;;;;11.44;75.94;99598.19;5028172;28;20036;-76
2021/10/31 09:04:34;;;;;;;0.15;0.15;;;;;;;11.40;75.24;99583.69;5029453;28;20033;-77
2021/10/31 09:07:00;;;;;;;0.15;0.15;;;;;;;11.40;75.26;99579.16;5028089;28;20470;-76
2021/10/31 09:09:25;;;;;;;0.10;0.10;;;;;;;11.49;74.57;99587.44;5030663;28;20115;-76
2021/10/31 09:11:51;;;;;;;0.05;0.05;;;;;;;11.50;73.16;99579.13;5029509;28;20505;-76
2021/10/31 09:14:17;;;;;;;1.58;1.02;;;;;;;11.56;72.98;99584.50;5028932;28;20124;-76
2021/10/31 09:16:42;;;;;;;4.78;1.45;;;;;;;11.58;72.69;99575.09;5029468;28;20484;-76
2021/10/31 09:19:09;;;;;;;0.45;0.45;;;;;;;11.64;72.76;99565.19;5029260;28;20509;-76
2021/10/31 09:21:34;;;;;;;0.30;0.30;;;;;;;11.68;72.11;99572.44;5029351;28;20025;-76
2021/10/31 09:24:00;;;;;;;0.00;0.00;;;;;;;11.69;71.35;99568.69;5029491;28;20037;-76
2021/10/31 09:26:25;;;;;;;0.08;0.08;;;;;;;11.77;71.68;99570.00;5029190;28;20459;-76
2021/10/31 09:28:51;;;;;;;0.10;0.10;;;;;;;11.79;71.39;99569.72;5029276;28;20025;-77
2021/10/31 09:31:17;;;;;;;0.10;0.10;;;;;;;11.84;71.13;99561.69;5029185;28;20021;-76
2021/10/31 09:33:42;;;;;;;0.00;0.00;;;;;;;11.91;70.91;99567.56;5029439;28;20029;-76
2021/10/31 09:36:08;;;;;;;1.13;1.02;;;;;;;11.93;70.77;99560.06;5029049;28;20482;-77
2021/10/31 09:38:34;;;;;;;0.15;0.15;;;;;;;11.99;70.16;99560.88;5029158;28;20029;-78
2021/10/31 09:41:00;;;;;;;0.10;0.10;;;;;;;12.01;70.35;99556.84;5029205;28;20055;-77
2021/10/31 09:43:32;;;;;;;0.00;0.00;;;;;;;12.05;69.21;99556.28;5028948;28;20050;-78
2021/10/31 09:46:00;;;;;;;0.10;0.10;;;;;;;12.12;68.68;99549.59;5029109;28;20044;-78
2021/10/31 09:48:31;;;;;;;0.00;0.00;;;;;;;12.12;67.75;99535.34;5028882;28;20036;-78
2021/10/31 09:50:57;;;;;;;0.20;0.20;;;;;;;12.18;68.30;99544.97;5029179;28;20029;-78
2021/10/31 09:53:25;;;;;;;0.63;0.63;;;;;;;12.24;67.97;99533.19;5028859;28;20498;-76
2021/10/31 09:55:51;;;;;;;0.10;0.10;;;;;;;12.31;67.64;99530.97;5029330;28;20399;-78
2021/10/31 09:58:34;;;;;;;0.00;0.00;;;;;;;12.37;67.64;99528.31;5028949;28;20033;-78
2021/10/31 10:01:06;;;;;;;0.00;0.00;;;;;;;12.45;67.62;99520.47;5029097;28;20505;-78
2021/10/31 10:06:18;;;;;;;0.00;0.00;;;;;;;12.61;67.47;99520.41;5030100;28;20029;-76
2021/10/31 10:09:07;;;;;;;0.38;0.38;;;;;;;12.72;66.49;99515.75;5028757;28;20052;-78
2021/10/31 10:11:41;;;;;;;0.65;0.57;;;;;;;12.75;66.94;99515.19;5028829;28;20025;-77
2021/10/31 10:14:28;;;;;;;0.20;0.20;;;;;;;12.72;66.62;99502.31;5028627;28;20021;-78
2021/10/31 10:17:06;;;;;;;0.52;0.52;;;;;;;12.80;65.80;99504.41;5029291;28;20051;-78
2021/10/31 10:19:45;;;;;;;0.10;0.10;;;;;;;12.75;66.67;99502.56;5032217;28;20055;-76
2021/10/31 10:22:17;;;;;;;0.10;0.10;;;;;;;12.72;66.71;99499.63;5032102;28;20030;-77
2021/10/31 10:25:01;;;;;;;0.00;0.00;;;;;;;12.72;66.47;99495.09;5032100;28;20034;-76
2021/10/31 10:27:30;;;;;;;0.03;0.03;;;;;;;12.72;67.02;99496.94;5032115;28;20665;-76
2021/10/31 10:29:57;;;;;;;1.70;1.30;;;;;;;12.62;66.44;99471.81;5031979;28;20025;-76
2021/10/31 10:32:24;;;;;;;0.45;0.45;;;;;;;12.76;67.10;99489.97;5031542;28;20037;-76
2021/10/31 10:34:56;;;;;;;0.63;0.52;;;;;;;12.81;67.75;99493.41;5031908;28;20095;-76
2021/10/31 10:37:29;;;;;;;0.15;0.15;;;;;;;12.68;66.50;99471.78;5031600;28;20038;-75
2021/10/31 10:40:08;;;;;;;0.00;0.00;;;;;;;12.74;67.22;99481.38;5032141;28;20033;-76
2021/10/31 10:42:43;;;;;;;0.00;0.00;;;;;;;12.67;68.08;99472.84;5031806;28;20073;-76
2021/10/31 10:45:12;;;;;;;0.75;0.75;;;;;;;12.69;67.43;99476.84;5031757;28;20037;-76
2021/10/31 10:48:05;;;;;;;0.95;0.93;;;;;;;12.66;67.41;99474.75;5031876;28;20065;-76
2021/10/31 10:50:37;;;;;;;0.32;0.32;;;;;;;12.61;67.76;99472.88;5030777;28;20029;-76
2021/10/31 10:53:17;;;;;;;0.10;0.10;;;;;;;12.62;67.60;99473.69;5031817;28;20030;-76
2021/10/31 10:55:42;;;;;;;0.65;0.65;;;;;;;12.59;67.67;99463.50;5031796;28;20059;-75
2021/10/31 10:58:16;;;;;;;0.28;0.28;;;;;;;12.62;68.29;99476.34;5031701;28;20033;-76
2021/10/31 11:00:46;;;;;;;0.10;0.10;;;;;;;12.57;68.42;99454.94;5031639;28;20029;-76
2021/10/31 11:03:18;;;;;;;0.00;0.00;;;;;;;12.67;68.70;99468.28;5032927;28;20237;-76
2021/10/31 11:06:01;;;;;;;0.00;0.00;;;;;;;12.76;68.13;99461.22;5031529;28;20026;-76
2021/10/31 11:08:27;;;;;;;0.00;0.00;;;;;;;12.73;67.37;99452.94;5031244;28;20030;-76
2021/10/31 11:10:55;;;;;;;1.20;1.13;;;;;;;12.76;68.33;99455.88;5031455;28;20032;-76
2021/10/31 11:13:23;;;;;;;0.35;0.35;;;;;;;12.82;68.31;99452.06;5031059;28;20091;-76
2021/10/31 11:15:48;;;;;;;0.07;0.07;;;;;;;12.86;67.40;99457.66;5031460;28;20036;-77
2021/10/31 11:18:14;;;;;;;0.00;0.00;;;;;;;12.88;67.52;99457.41;5031086;28;20264;-76
2021/10/31 11:20:42;;;;;;;0.10;0.10;;;;;;;12.86;67.91;99449.63;5031328;28;20163;-77
2021/10/31 11:23:10;;;;;;;0.43;0.38;;;;;;;12.95;68.47;99453.31;5031232;28;20119;-77
2021/10/31 11:25:38;;;;;;;0.00;0.00;;;;;;;12.98;68.71;99447.34;5031189;28;20038;-77
2021/10/31 11:28:08;;;;;;;0.20;0.20;;;;;;;13.08;68.55;99433.03;5032445;28;20021;-77
2021/10/31 11:30:35;;;;;;;0.32;0.32;;;;;;;13.14;67.63;99425.75;5030503;28;20419;-75
2021/10/31 11:33:02;;;;;;;0.30;0.30;;;;;;;13.19;67.04;99436.44;5031120;28;20112;-76
2021/10/31 11:35:29;;;;;;;0.75;0.75;;;;;;;13.19;67.15;99423.00;5031686;28;20052;-77
2021/10/31 11:37:59;;;;;;;0.20;0.20;;;;;;;13.27;67.43;99418.91;5030989;28;20043;-76
2021/10/31 11:40:34;;;;;;;0.20;0.20;;;;;;;13.27;67.23;99422.41;5030762;28;20134;-76
2021/10/31 11:43:02;;;;;;;0.60;0.30;;;;;;;13.32;67.28;99415.34;5030715;28;20052;-76